createdAt,value
2018-03-04T00:00:10.787Z,51.25
2018-03-04T00:02:37.019Z,48.67
2018-03-04T00:05:03.254Z,50.53
2018-03-04T00:07:29.471Z,50.50
2018-03-04T00:09:55.714Z,47.33
2018-03-04T00:12:21.970Z,48.75
2018-03-04T00:14:48.207Z,50.20
2018-03-04T00:17:14.484Z,48.55
2018-03-04T00:19:40.731Z,52.42
2018-03-04T00:22:06.952Z,49.58
2018-03-04T00:24:33.198Z,51.45
2018-03-04T00:26:59.435Z,50.92
2018-03-04T00:29:25.671Z,50.15
2018-03-04T00:31:51.919Z,52.22
2018-03-04T00:34:18.145Z,49.63
2018-03-04T00:36:44.739Z,46.40
2018-03-04T00:39:11.694Z,50.75
2018-03-04T00:41:37.909Z,50.58
2018-03-04T00:44:04.163Z,48.40
2018-03-04T00:46:30.390Z,50.50
2018-03-04T00:48:56.629Z,52.58
2018-03-04T00:51:22.848Z,49.63
2018-03-04T00:53:49.081Z,52.60
2018-03-04T00:56:15.292Z,51.45
2018-03-04T00:58:42.301Z,52.33
2018-03-04T01:01:08.514Z,52.28
2018-03-04T01:03:34.728Z,53.28
2018-03-04T01:06:01.715Z,53.42
2018-03-04T01:08:27.931Z,50.28
2018-03-04T01:10:54.955Z,56.58
2018-03-04T01:13:21.193Z,49.75
2018-03-04T01:15:47.432Z,51.55
2018-03-04T01:18:13.690Z,53.63
2018-03-04T01:20:39.907Z,51.28
2018-03-04T01:23:06.176Z,50.63
2018-03-04T01:25:33.135Z,51.88
2018-03-04T01:28:00.155Z,53.15
2018-03-04T01:30:26.366Z,53.33
2018-03-04T01:32:52.575Z,51.63
2018-03-04T01:35:19.555Z,53.50
2018-03-04T01:37:45.788Z,50.78
2018-03-04T01:40:12.020Z,54.88
2018-03-04T01:42:39.034Z,52.88
2018-03-04T01:45:05.238Z,51.13
2018-03-04T01:47:31.478Z,52.90
2018-03-04T01:49:57.676Z,54.00
2018-03-04T01:52:23.927Z,53.70
2018-03-04T01:54:50.886Z,53.45
2018-03-04T01:57:17.876Z,53.63
2018-03-04T01:59:44.091Z,54.45
2018-03-04T02:02:11.352Z,54.53
2018-03-04T02:04:38.315Z,58.33
2018-03-04T02:07:05.323Z,52.90
2018-03-04T02:09:31.567Z,54.72
2018-03-04T02:11:57.772Z,55.70
2018-03-04T02:14:23.987Z,55.65
2018-03-04T02:16:51.019Z,55.50
2018-03-04T02:19:17.251Z,53.83
2018-03-04T02:21:43.497Z,53.28
2018-03-04T02:24:09.737Z,53.60
2018-03-04T02:26:35.954Z,56.67
2018-03-04T02:29:02.199Z,57.30
2018-03-04T02:31:28.439Z,56.05
2018-03-04T02:33:54.640Z,54.85
2018-03-04T02:36:21.984Z,54.15
2018-03-04T02:38:48.203Z,51.37
2018-03-04T02:41:14.447Z,56.17
2018-03-04T02:43:40.683Z,53.97
2018-03-04T02:46:06.892Z,56.88
2018-03-04T02:48:33.127Z,52.83
2018-03-04T02:50:59.361Z,56.20
2018-03-04T02:53:25.604Z,57.10
2018-03-04T02:55:51.834Z,55.40
2018-03-04T02:58:18.811Z,55.40
2018-03-04T03:00:45.018Z,55.75
2018-03-04T03:03:11.963Z,56.97
2018-03-04T03:05:38.188Z,57.60
2018-03-04T03:08:04.416Z,60.00
2018-03-04T03:10:30.653Z,54.03
2018-03-04T03:12:56.877Z,57.83
2018-03-04T03:15:23.122Z,56.95
2018-03-04T03:17:49.385Z,55.83
2018-03-04T03:20:15.627Z,53.05
2018-03-04T03:22:41.859Z,57.83
2018-03-04T03:25:08.062Z,58.38
2018-03-04T03:27:34.301Z,54.63
2018-03-04T03:30:00.521Z,57.62
2018-03-04T03:32:27.489Z,55.47
2018-03-04T03:34:54.442Z,54.95
2018-03-04T03:37:21.412Z,52.90
2018-03-04T03:39:47.616Z,55.47
2018-03-04T03:42:13.830Z,57.90
2018-03-04T03:44:40.034Z,54.35
2018-03-04T03:47:06.248Z,54.63
2018-03-04T03:49:33.212Z,56.45
2018-03-04T03:52:00.196Z,52.05
2018-03-04T03:54:26.422Z,55.50
2018-03-04T03:56:52.652Z,55.72
2018-03-04T03:59:19.624Z,56.45
2018-03-04T04:01:45.851Z,57.83
2018-03-04T04:04:12.830Z,53.78
2018-03-04T04:06:39.042Z,58.92
2018-03-04T04:09:06.034Z,55.65
2018-03-04T04:11:32.267Z,56.70
2018-03-04T04:13:58.496Z,58.20
2018-03-04T04:16:24.791Z,54.38
2018-03-04T04:18:51.008Z,54.88
2018-03-04T04:21:17.871Z,56.37
2018-03-04T04:23:44.098Z,54.25
2018-03-04T04:26:10.349Z,53.40
2018-03-04T04:28:36.583Z,55.12
2018-03-04T04:31:02.818Z,56.78
2018-03-04T04:33:29.035Z,53.60
2018-03-04T04:35:55.243Z,56.40
2018-03-04T04:38:21.784Z,57.60
2018-03-04T04:40:47.998Z,54.13
2018-03-04T04:43:14.235Z,56.90
2018-03-04T04:45:40.462Z,58.53
2018-03-04T04:48:06.689Z,55.88
2018-03-04T04:50:32.919Z,57.80
2018-03-04T04:52:59.893Z,58.00
2018-03-04T04:55:26.105Z,58.50
2018-03-04T04:57:53.117Z,55.28
2018-03-04T05:00:19.339Z,54.35
2018-03-04T05:02:45.579Z,57.85
2018-03-04T05:05:11.798Z,56.22
2018-03-04T05:07:38.040Z,53.35
2018-03-04T05:10:04.270Z,56.78
2018-03-04T05:12:31.228Z,62.62
2018-03-04T05:14:58.193Z,55.58
2018-03-04T05:17:25.205Z,54.55
2018-03-04T05:19:51.427Z,57.67
2018-03-04T05:22:17.639Z,61.80
2018-03-04T05:24:43.911Z,58.08
2018-03-04T05:27:10.135Z,58.90
2018-03-04T05:29:36.361Z,51.35
2018-03-04T05:32:03.325Z,51.58
2018-03-04T05:34:29.535Z,50.28
2018-03-04T05:36:56.765Z,54.03
2018-03-04T05:39:22.961Z,52.50
2018-03-04T05:41:49.189Z,53.60
2018-03-04T05:44:15.404Z,51.15
2018-03-04T05:46:41.645Z,52.47
2018-03-04T05:49:07.884Z,54.75
2018-03-04T05:51:34.922Z,52.78
2018-03-04T05:54:01.483Z,52.55
2018-03-04T05:56:27.699Z,51.97
2018-03-04T05:58:53.926Z,52.15
2018-03-04T06:01:20.162Z,57.65
2018-03-04T06:03:46.384Z,53.83
2018-03-04T06:06:13.365Z,51.47
2018-03-04T06:08:39.586Z,53.40
2018-03-04T06:11:06.106Z,53.08
2018-03-04T06:13:32.316Z,55.58
2018-03-04T06:15:58.580Z,55.50
2018-03-04T06:18:24.803Z,55.90
2018-03-04T06:20:51.032Z,56.72
2018-03-04T06:23:17.258Z,56.17
2018-03-04T06:25:43.498Z,56.83
2018-03-04T06:28:09.720Z,55.17
2018-03-04T06:30:35.961Z,56.28
2018-03-04T06:33:02.202Z,54.97
2018-03-04T06:35:28.819Z,56.75
2018-03-04T06:37:55.779Z,58.05
2018-03-04T06:40:22.740Z,58.90
2018-03-04T06:42:48.923Z,58.35
2018-03-04T06:45:15.154Z,56.00
2018-03-04T06:47:41.385Z,58.67
2018-03-04T06:50:07.603Z,62.10
2018-03-04T06:52:34.580Z,60.28
2018-03-04T06:55:00.824Z,61.35
2018-03-04T06:57:27.082Z,56.50
2018-03-04T06:59:53.321Z,56.20
2018-03-04T07:02:19.546Z,57.08
2018-03-04T07:04:45.792Z,56.95
2018-03-04T07:07:12.020Z,58.87
2018-03-04T07:09:38.283Z,55.30
2018-03-04T07:12:04.520Z,58.15
2018-03-04T07:14:30.741Z,58.13
2018-03-04T07:16:57.055Z,57.70
2018-03-04T07:19:23.285Z,61.53
2018-03-04T07:21:49.554Z,57.88
2018-03-04T07:24:16.559Z,59.03
2018-03-04T07:26:42.801Z,57.03
2018-03-04T07:29:09.051Z,55.10
2018-03-04T07:31:35.281Z,59.47
2018-03-04T07:34:01.550Z,62.42
2018-03-04T07:36:27.813Z,56.45
2018-03-04T07:38:54.802Z,62.72
2018-03-04T07:41:21.027Z,56.65
2018-03-04T07:43:48.019Z,59.92
2018-03-04T07:46:14.235Z,54.15
2018-03-04T07:48:40.472Z,56.20
2018-03-04T07:51:06.686Z,56.45
2018-03-04T07:53:33.739Z,56.53
2018-03-04T07:55:59.979Z,56.78
2018-03-04T07:58:26.219Z,55.80
2018-03-04T08:00:52.451Z,55.65
2018-03-04T08:03:18.686Z,57.25
2018-03-04T08:05:44.941Z,54.78
2018-03-04T08:08:11.181Z,55.63
2018-03-04T08:10:37.370Z,58.50
2018-03-04T08:13:03.609Z,56.58
2018-03-04T08:15:29.853Z,61.95
2018-03-04T08:17:56.079Z,62.50
2018-03-04T08:20:22.303Z,68.70
2018-03-04T08:22:49.290Z,62.80
2018-03-04T08:25:27.852Z,56.53
2018-03-04T08:28:06.526Z,55.20
2018-03-04T08:30:32.744Z,59.80
2018-03-04T08:32:58.954Z,58.87
2018-03-04T08:35:25.182Z,58.63
2018-03-04T08:37:51.423Z,59.45
2018-03-04T08:40:17.736Z,56.70
2018-03-04T08:42:43.924Z,53.00
2018-03-04T08:45:10.200Z,54.05
2018-03-04T08:47:37.173Z,53.40
2018-03-04T08:50:03.403Z,59.08
2018-03-04T08:52:30.368Z,60.05
2018-03-04T08:54:56.618Z,55.40
2018-03-04T08:57:22.890Z,58.00
2018-03-04T08:59:49.119Z,56.13
2018-03-04T09:02:15.343Z,56.88
2018-03-04T09:04:41.595Z,52.13
2018-03-04T09:07:07.816Z,53.85
2018-03-04T09:09:34.089Z,54.55
2018-03-04T09:12:00.284Z,55.67
2018-03-04T09:14:27.257Z,52.92
2018-03-04T09:16:53.494Z,54.17
2018-03-04T09:19:19.723Z,52.00
2018-03-04T09:21:46.719Z,49.58
2018-03-04T09:24:12.951Z,47.90
2018-03-04T09:26:39.169Z,44.83
2018-03-04T09:29:05.407Z,50.97
2018-03-04T09:31:31.644Z,42.25
2018-03-04T09:33:58.994Z,48.70
2018-03-04T09:36:25.988Z,46.88
2018-03-04T09:38:52.226Z,44.70
2018-03-04T09:41:18.464Z,47.40
2018-03-04T09:43:44.696Z,47.70
2018-03-04T09:46:10.966Z,46.80
2018-03-04T09:48:37.184Z,43.97
2018-03-04T09:51:03.431Z,47.67
2018-03-04T09:53:29.692Z,44.28
2018-03-04T09:55:55.944Z,47.42
2018-03-04T09:58:22.225Z,46.97
2018-03-04T10:00:49.224Z,44.72
2018-03-04T10:03:15.437Z,46.33
2018-03-04T10:05:41.680Z,45.70
2018-03-04T10:08:08.204Z,43.90
2018-03-04T10:10:34.432Z,46.45
2018-03-04T10:13:00.683Z,46.37
2018-03-04T10:15:26.915Z,45.85
2018-03-04T10:17:53.135Z,45.72
2018-03-04T10:20:19.404Z,44.45
2018-03-04T10:22:45.621Z,40.60
2018-03-04T10:25:11.866Z,51.28
2018-03-04T10:27:38.101Z,63.90
2018-03-04T10:30:04.327Z,80.75
2018-03-04T10:32:30.572Z,51.88
2018-03-04T10:34:57.550Z,46.13
2018-03-04T10:37:23.787Z,44.80
2018-03-04T10:39:50.023Z,42.40
2018-03-04T10:42:16.235Z,38.28
2018-03-04T10:44:42.494Z,41.35
2018-03-04T10:47:08.737Z,40.38
2018-03-04T10:49:35.008Z,42.78
2018-03-04T10:52:02.012Z,45.35
2018-03-04T10:54:28.252Z,42.60
2018-03-04T10:56:54.507Z,43.50
2018-03-04T10:59:20.746Z,45.22
2018-03-04T11:01:47.853Z,40.55
2018-03-04T11:04:14.848Z,41.45
2018-03-04T11:06:41.099Z,40.78
2018-03-04T11:09:07.395Z,40.30
2018-03-04T11:11:34.426Z,41.78
2018-03-04T11:14:00.638Z,43.72
2018-03-04T11:16:26.861Z,40.75
2018-03-04T11:18:53.085Z,42.15
2018-03-04T11:21:19.322Z,41.42
2018-03-04T11:23:45.563Z,44.60
2018-03-04T11:26:11.793Z,42.28
2018-03-04T11:28:38.767Z,39.38
2018-03-04T11:31:05.012Z,39.15
2018-03-04T11:33:31.254Z,40.70
2018-03-04T11:35:57.486Z,42.75
2018-03-04T11:38:23.731Z,42.10
2018-03-04T11:40:49.970Z,42.65
2018-03-04T11:43:16.218Z,41.75
2018-03-04T11:45:42.465Z,42.97
2018-03-04T11:48:08.721Z,42.50
2018-03-04T11:50:35.718Z,41.42
2018-03-04T11:53:01.977Z,39.87
2018-03-04T11:55:29.329Z,38.63
2018-03-04T11:57:56.324Z,37.75
2018-03-04T12:00:22.567Z,36.43
2018-03-04T12:02:48.801Z,35.60
2018-03-04T12:05:15.025Z,35.40
2018-03-04T12:07:41.312Z,38.60
2018-03-04T12:10:07.577Z,36.07
2018-03-04T12:12:33.854Z,36.77
2018-03-04T12:15:00.110Z,35.00
2018-03-04T12:17:26.315Z,32.97
2018-03-04T12:19:52.616Z,32.90
2018-03-04T12:22:18.874Z,33.17
2018-03-04T12:24:45.367Z,33.17
2018-03-04T12:27:11.591Z,30.30
2018-03-04T12:29:38.571Z,32.90
2018-03-04T12:32:04.822Z,32.50
2018-03-04T12:34:31.072Z,33.40
2018-03-04T12:36:57.335Z,31.73
2018-03-04T12:39:23.583Z,31.40
2018-03-04T12:41:49.813Z,33.43
2018-03-04T12:44:16.055Z,30.23
2018-03-04T12:46:42.287Z,33.40
2018-03-04T12:49:08.549Z,31.80
2018-03-04T12:51:34.771Z,34.20
2018-03-04T12:54:01.051Z,32.97
2018-03-04T12:56:28.023Z,30.97
2018-03-04T12:58:55.009Z,34.00
2018-03-04T13:01:22.096Z,31.97
2018-03-04T13:03:48.309Z,32.70
2018-03-04T13:06:14.584Z,29.97
2018-03-04T13:08:40.817Z,32.43
2018-03-04T13:11:07.046Z,34.03
2018-03-04T13:13:33.310Z,34.77
2018-03-04T13:15:59.878Z,31.43
2018-03-04T13:18:26.160Z,34.03
2018-03-04T13:20:52.464Z,34.13
2018-03-04T13:23:19.444Z,32.13
2018-03-04T13:25:45.716Z,34.43
2018-03-04T13:28:12.077Z,36.40
2018-03-04T13:30:38.292Z,35.37
2018-03-04T13:33:04.594Z,35.20
2018-03-04T13:35:30.848Z,33.53
2018-03-04T13:37:57.822Z,33.87
2018-03-04T13:40:24.066Z,32.70
2018-03-04T13:42:50.302Z,35.60
2018-03-04T13:45:16.920Z,32.43
2018-03-04T13:47:43.885Z,33.10
2018-03-04T13:50:10.848Z,36.80
2018-03-04T13:52:37.812Z,35.70
2018-03-04T13:55:04.098Z,37.97
2018-03-04T13:57:30.355Z,38.40
2018-03-04T13:59:56.571Z,38.33
2018-03-04T14:02:22.828Z,36.67
2018-03-04T14:04:49.058Z,40.53
2018-03-04T14:07:15.292Z,39.87
2018-03-04T14:09:41.553Z,36.70
2018-03-04T14:12:07.763Z,41.50
2018-03-04T14:14:34.012Z,41.17
2018-03-04T14:17:00.209Z,42.10
2018-03-04T14:19:27.178Z,42.60
2018-03-04T14:21:53.400Z,40.13
2018-03-04T14:24:19.918Z,43.73
2018-03-04T14:26:46.152Z,42.57
2018-03-04T14:29:12.371Z,45.93
2018-03-04T14:31:38.635Z,43.67
2018-03-04T14:34:04.862Z,44.10
2018-03-04T14:36:31.107Z,42.97
2018-03-04T14:38:57.410Z,52.63
2018-03-04T14:41:23.679Z,46.80
2018-03-04T14:43:49.926Z,47.93
2018-03-04T14:46:16.175Z,43.47
2018-03-04T14:48:42.410Z,42.20
2018-03-04T14:51:11.511Z,42.63
2018-03-04T14:53:39.176Z,42.00
2018-03-04T14:56:05.432Z,40.80
2018-03-04T14:58:31.674Z,38.70
2018-03-04T15:00:58.188Z,39.23
2018-03-04T15:03:25.305Z,39.77
2018-03-04T15:05:51.816Z,42.37
2018-03-04T15:08:18.038Z,41.90
2018-03-04T15:10:44.302Z,40.73
2018-03-04T15:13:10.677Z,41.93
2018-03-04T15:15:36.913Z,45.90
2018-03-04T15:18:03.261Z,42.40
2018-03-04T15:20:29.489Z,43.53
2018-03-04T15:22:55.725Z,44.47
2018-03-04T15:25:21.992Z,43.73
2018-03-04T15:27:48.245Z,43.47
2018-03-04T15:30:15.257Z,40.90
2018-03-04T15:32:41.538Z,43.07
2018-03-04T15:35:07.809Z,43.70
2018-03-04T15:37:34.101Z,42.93
2018-03-04T15:40:00.311Z,41.30
2018-03-04T15:42:26.560Z,43.37
2018-03-04T15:44:52.813Z,44.20
2018-03-04T15:47:19.059Z,43.83
2018-03-04T15:49:45.277Z,44.10
2018-03-04T15:52:11.519Z,45.30
2018-03-04T15:54:37.779Z,43.50
2018-03-04T15:57:04.014Z,42.27
2018-03-04T15:59:30.265Z,46.57
2018-03-04T16:01:56.525Z,46.37
2018-03-04T16:04:23.538Z,44.40
2018-03-04T16:06:49.789Z,46.00
2018-03-04T16:09:16.344Z,47.37
2018-03-04T16:11:42.642Z,37.30
2018-03-04T16:14:09.728Z,48.97
2018-03-04T16:16:36.024Z,45.60
2018-03-04T16:19:02.340Z,46.33
2018-03-04T16:21:29.407Z,41.53
2018-03-04T16:23:55.648Z,45.25
2018-03-04T16:26:21.939Z,45.22
2018-03-04T16:28:48.196Z,46.72
2018-03-04T16:31:14.472Z,43.80
2018-03-04T16:33:40.745Z,45.35
2018-03-04T16:36:07.024Z,47.38
2018-03-04T16:38:33.324Z,49.40
2018-03-04T16:41:00.312Z,49.15
2018-03-04T16:43:26.917Z,49.45
2018-03-04T16:45:53.158Z,48.35
2018-03-04T16:48:19.404Z,47.85
2018-03-04T16:50:46.391Z,49.28
2018-03-04T16:53:12.668Z,51.17
2018-03-04T16:55:38.938Z,52.95
2018-03-04T16:58:05.168Z,47.22
2018-03-04T17:00:31.425Z,54.83
2018-03-04T17:02:58.380Z,48.87
2018-03-04T17:05:25.430Z,50.92
2018-03-04T17:07:51.719Z,51.37
2018-03-04T17:10:17.997Z,55.70
2018-03-04T17:12:44.278Z,53.47
2018-03-04T17:15:10.537Z,53.85
2018-03-04T17:17:43.811Z,53.55
2018-03-04T17:20:10.828Z,52.97
2018-03-04T17:22:37.129Z,55.12
2018-03-04T17:25:03.487Z,52.65
2018-03-04T17:27:30.117Z,51.58
2018-03-04T17:29:57.103Z,54.22
2018-03-04T17:32:23.423Z,52.72
2018-03-04T17:34:49.711Z,53.28
2018-03-04T17:37:16.076Z,53.65
2018-03-04T17:39:42.329Z,51.95
2018-03-04T17:42:09.453Z,51.42
2018-03-04T17:44:36.032Z,58.28
2018-03-04T17:47:02.369Z,55.55
2018-03-04T17:49:28.645Z,56.80
2018-03-04T17:51:54.961Z,52.97
2018-03-04T17:54:22.021Z,54.17
2018-03-04T17:56:48.350Z,53.22
2018-03-04T17:59:14.615Z,53.50
2018-03-04T18:01:41.641Z,50.58
2018-03-04T18:04:07.967Z,51.60
2018-03-04T18:06:34.265Z,50.38
2018-03-04T18:09:01.311Z,48.50
2018-03-04T18:11:28.322Z,50.72
2018-03-04T18:13:54.647Z,48.63
2018-03-04T18:16:20.928Z,49.38
2018-03-04T18:18:47.227Z,50.55
2018-03-04T18:21:13.577Z,47.45
2018-03-04T18:23:39.839Z,48.83
2018-03-04T18:26:06.455Z,47.28
2018-03-04T18:28:32.768Z,45.90
2018-03-04T18:30:59.074Z,47.55
2018-03-04T18:33:25.412Z,46.28
2018-03-04T18:35:51.743Z,46.40
2018-03-04T18:38:18.055Z,46.08
2018-03-04T18:40:45.109Z,42.38
2018-03-04T18:43:12.160Z,44.35
2018-03-04T18:45:40.380Z,46.17
2018-03-04T18:48:06.728Z,44.50
2018-03-04T18:50:33.119Z,44.70
2018-03-04T18:52:59.446Z,46.88
2018-03-04T18:55:26.640Z,42.67
2018-03-04T18:57:52.943Z,45.45
2018-03-04T19:00:19.324Z,46.05
2018-03-04T19:02:46.364Z,42.90
2018-03-04T19:05:13.715Z,41.40
2018-03-04T19:07:41.254Z,39.25
2018-03-04T19:10:07.616Z,40.03
2018-03-04T19:12:35.099Z,41.53
2018-03-04T19:15:01.507Z,40.33
2018-03-04T19:17:28.010Z,40.35
2018-03-04T19:19:54.654Z,39.10
2018-03-04T19:22:21.256Z,40.80
2018-03-04T19:24:47.606Z,41.65
2018-03-04T19:27:13.906Z,41.05
2018-03-04T19:29:40.232Z,40.25
2018-03-04T19:32:06.640Z,39.30
2018-03-04T19:34:32.961Z,41.83
2018-03-04T19:36:59.284Z,42.58
2018-03-04T19:39:26.662Z,42.03
2018-03-04T19:41:53.726Z,41.60
2018-03-04T19:44:21.879Z,39.92
2018-03-04T19:46:49.239Z,42.55
2018-03-04T19:49:15.948Z,45.15
2018-03-04T19:51:43.168Z,44.35
2018-03-04T19:54:09.785Z,39.50
2018-03-04T19:56:36.468Z,43.20
2018-03-04T19:59:02.756Z,40.72
2018-03-04T20:01:29.701Z,40.55
2018-03-04T20:03:55.991Z,38.63
2018-03-04T20:06:22.463Z,43.80
2018-03-04T20:08:49.630Z,43.05
2018-03-04T20:11:16.994Z,40.05
2018-03-04T20:13:43.495Z,40.53
2018-03-04T20:16:09.865Z,42.20
2018-03-04T20:18:37.596Z,40.15
2018-03-04T20:21:04.903Z,40.60
2018-03-04T20:23:31.279Z,39.35
2018-03-04T20:25:58.443Z,41.55
2018-03-04T20:28:25.455Z,38.75
2018-03-04T20:30:51.787Z,40.20
2018-03-04T20:33:18.098Z,41.37
2018-03-04T20:35:44.405Z,48.22
2018-03-04T20:38:10.714Z,45.38
2018-03-04T20:40:37.013Z,47.03
2018-03-04T20:43:04.076Z,51.20
2018-03-04T20:45:31.117Z,57.83
2018-03-04T20:47:57.395Z,50.72
2018-03-04T20:50:23.694Z,46.67
2018-03-04T20:52:51.239Z,42.03
2018-03-04T20:55:17.575Z,41.83
2018-03-04T20:57:44.932Z,43.50
2018-03-04T21:00:11.726Z,39.35
2018-03-04T21:02:38.319Z,44.90
2018-03-04T21:05:04.645Z,42.05
2018-03-04T21:07:30.918Z,40.58
2018-03-04T21:09:57.229Z,40.92
2018-03-04T21:12:23.474Z,41.17
2018-03-04T21:14:51.141Z,43.33
2018-03-04T21:17:18.176Z,43.58
2018-03-04T21:19:44.754Z,43.50
2018-03-04T21:22:12.887Z,42.35
2018-03-04T21:24:39.245Z,42.20
2018-03-04T21:27:05.556Z,38.72
2018-03-04T21:29:31.829Z,43.20
2018-03-04T21:31:59.548Z,42.78
2018-03-04T21:34:25.837Z,44.92
2018-03-04T21:36:52.123Z,42.70
2018-03-04T21:39:19.132Z,44.15
2018-03-04T21:41:45.398Z,43.72
2018-03-04T21:44:11.642Z,45.28
2018-03-04T21:46:38.278Z,48.65
2018-03-04T21:49:04.523Z,47.62
2018-03-04T21:51:30.752Z,47.30
2018-03-04T21:53:59.719Z,48.38
2018-03-04T21:56:26.796Z,46.53
2018-03-04T21:58:53.017Z,48.28
2018-03-04T22:01:19.227Z,45.22
2018-03-04T22:03:46.192Z,47.30
2018-03-04T22:06:13.170Z,47.15
2018-03-04T22:08:39.432Z,45.67
2018-03-04T22:11:05.654Z,45.88
2018-03-04T22:13:31.898Z,45.00
2018-03-04T22:15:58.221Z,43.67
2018-03-04T22:18:25.201Z,46.15
2018-03-04T22:20:51.454Z,44.38
2018-03-04T22:23:17.694Z,44.42
2018-03-04T22:25:43.934Z,47.00
2018-03-04T22:28:10.180Z,46.13
2018-03-04T22:30:36.392Z,46.40
2018-03-04T22:33:02.620Z,46.45
2018-03-04T22:35:29.595Z,48.25
2018-03-04T22:37:56.109Z,48.25
2018-03-04T22:40:23.107Z,44.10
2018-03-04T22:42:49.311Z,48.55
2018-03-04T22:45:16.282Z,45.30
2018-03-04T22:47:43.254Z,49.10
2018-03-04T22:50:09.473Z,45.40
2018-03-04T22:52:36.432Z,45.15
2018-03-04T22:55:02.729Z,49.38
2018-03-04T22:57:28.938Z,45.28
2018-03-04T22:59:55.189Z,43.28
2018-03-04T23:02:21.434Z,44.88
2018-03-04T23:04:47.669Z,42.60
2018-03-04T23:07:13.883Z,44.60
2018-03-04T23:09:40.105Z,47.85
2018-03-04T23:12:07.101Z,46.65
2018-03-04T23:14:33.372Z,48.33
2018-03-04T23:16:59.592Z,50.72
2018-03-04T23:19:25.807Z,50.03
2018-03-04T23:21:52.028Z,50.58
2018-03-04T23:24:18.992Z,53.17
2018-03-04T23:26:45.954Z,50.45
2018-03-04T23:29:12.904Z,51.05
2018-03-04T23:31:39.966Z,49.95
2018-03-04T23:34:06.916Z,47.38
2018-03-04T23:36:33.876Z,54.83
2018-03-04T23:39:00.850Z,56.55
2018-03-04T23:41:27.079Z,54.28
2018-03-04T23:43:54.083Z,54.80
2018-03-04T23:46:20.302Z,53.22
2018-03-04T23:48:46.532Z,52.83
2018-03-04T23:51:12.742Z,50.12
2018-03-04T23:53:39.748Z,54.90
2018-03-04T23:56:05.972Z,50.05
2018-03-04T23:58:32.194Z,51.00
